Time;durP1;ratioP1;P1;durP2;ratioP2;P2;SDS_P1;SDS_P2;PMS_P1;PMS_P2;Temp;Humidity;BMP_temperature;BMP_pressure;BME280_temperature;BME280_humidity;BME280_pressure;Samples;Min_cycle;Max_cycle;Signal;HPM_P1;HPM_P2
2023/01/04 00:01:41;;;;;;;7.03;5.50;;;;;;;;;;5012367;28;20581;-60
2023/01/04 00:04:06;;;;;;;9.90;5.53;;;;;;;;;;5013189;28;20424;-61
2023/01/04 00:06:32;;;;;;;5.43;4.60;;;;;;;;;;5004791;28;20436;-61
2023/01/04 00:08:58;;;;;;;6.63;5.83;;;;;;;;;;5004483;28;20443;-61
2023/01/04 00:11:24;;;;;;;8.40;5.40;;;;;;;;;;4990743;28;20440;-62
2023/01/04 00:14:02;;;;;;;6.50;4.93;;;;;;;;;;5007999;28;20531;-62
2023/01/04 00:16:29;;;;;;;6.47;4.90;;;;;;;;;;4980481;28;20481;-61
2023/01/04 00:18:55;;;;;;;6.13;4.53;;;;;;;;;;5010109;28;20436;-61
2023/01/04 00:21:30;;;;;;;7.83;5.50;;;;;;;;;;5005254;28;20423;-60
2023/01/04 00:23:56;;;;;;;7.73;5.40;;;;;;;;;;5009066;28;20453;-62
2023/01/04 00:26:24;;;;;;;9.53;7.23;;;;;;;;;;4993481;28;20436;-60
2023/01/04 00:28:54;;;;;;;6.93;5.33;;;;;;;;;;5017091;28;20447;-61
2023/01/04 00:31:19;;;;;;;9.37;5.53;;;;;;;;;;5014595;28;20510;-61
2023/01/04 00:33:45;;;;;;;9.60;5.53;;;;;;;;;;5010607;28;20440;-61
2023/01/04 00:36:12;;;;;;;9.17;5.57;;;;;;;;;;4986708;28;20590;-60
2023/01/04 00:38:38;;;;;;;6.03;4.03;;;;;;;;;;5011072;28;20582;-61
2023/01/04 00:41:04;;;;;;;11.73;6.03;;;;;;;;;;4986740;28;20436;-60
2023/01/04 00:43:30;;;;;;;8.93;4.63;;;;;;;;;;5010890;28;20444;-62
2023/01/04 00:45:56;;;;;;;7.83;4.03;;;;;;;;;;5011116;28;20458;-61
2023/01/04 00:48:23;;;;;;;10.20;5.13;;;;;;;;;;4994721;28;20428;-61
2023/01/04 00:50:49;;;;;;;7.70;4.77;;;;;;;;;;4966455;28;20452;-61
2023/01/04 00:53:15;;;;;;;11.90;5.77;;;;;;;;;;5007684;28;20545;-61
2023/01/04 00:55:41;;;;;;;6.60;4.27;;;;;;;;;;4999110;28;20440;-62
2023/01/04 00:58:07;;;;;;;6.53;4.73;;;;;;;;;;5006005;28;20488;-61
2023/01/04 01:00:33;;;;;;;8.07;5.03;;;;;;;;;;5011759;28;20435;-60
2023/01/04 01:02:59;;;;;;;6.13;4.80;;;;;;;;;;5010218;28;20455;-61
2023/01/04 01:05:25;;;;;;;7.97;5.27;;;;;;;;;;5008295;28;20575;-58
2023/01/04 01:07:51;;;;;;;9.30;5.43;;;;;;;;;;5010273;28;20428;-64
2023/01/04 01:10:17;;;;;;;6.10;4.40;;;;;;;;;;4993361;28;20431;-60
2023/01/04 01:12:43;;;;;;;6.03;5.40;;;;;;;;;;5010251;28;20472;-60
2023/01/04 01:15:09;;;;;;;6.53;4.90;;;;;;;;;;4987153;28;20436;-60
2023/01/04 01:17:35;;;;;;;5.93;4.20;;;;;;;;;;4995062;28;21573;-61
2023/01/04 01:20:03;;;;;;;6.53;4.57;;;;;;;;;;4999756;28;20443;-59
2023/01/04 01:22:29;;;;;;;9.30;5.00;;;;;;;;;;4962276;28;20961;-59
2023/01/04 01:24:54;;;;;;;5.90;3.77;;;;;;;;;;5010530;28;20444;-59
2023/01/04 01:27:20;;;;;;;5.17;3.80;;;;;;;;;;4977997;28;20185;-59
2023/01/04 01:29:46;;;;;;;4.30;3.90;;;;;;;;;;5007576;28;20464;-59
2023/01/04 01:32:12;;;;;;;6.00;4.40;;;;;;;;;;5009406;28;20447;-59
2023/01/04 01:34:38;;;;;;;6.87;3.40;;;;;;;;;;4998457;28;20445;-59
2023/01/04 01:37:04;;;;;;;6.10;4.10;;;;;;;;;;4981152;28;20224;-60
2023/01/04 01:39:30;;;;;;;7.00;4.00;;;;;;;;;;5001352;28;20464;-60
2023/01/04 01:41:58;;;;;;;6.90;4.40;;;;;;;;;;4984434;28;20548;-60
2023/01/04 01:44:45;;;;;;;5.47;3.57;;;;;;;;;;5006724;28;21008;-59
2023/01/04 01:47:15;;;;;;;6.23;4.13;;;;;;;;;;4984896;28;20436;-59
2023/01/04 01:49:41;;;;;;;5.70;4.00;;;;;;;;;;5004586;28;20436;-62
2023/01/04 01:52:08;;;;;;;5.80;3.30;;;;;;;;;;4989986;28;20516;-61
2023/01/04 01:54:36;;;;;;;5.60;3.93;;;;;;;;;;4988035;28;20432;-60
2023/01/04 01:57:03;;;;;;;7.10;4.97;;;;;;;;;;4964664;28;25225;-61
2023/01/04 01:59:29;;;;;;;5.87;4.00;;;;;;;;;;5012430;28;20432;-59
2023/01/04 02:01:55;;;;;;;7.23;4.30;;;;;;;;;;5010467;28;20478;-60
2023/01/04 02:04:21;;;;;;;7.33;4.70;;;;;;;;;;5018752;28;20442;-59
2023/01/04 02:06:50;;;;;;;6.10;4.30;;;;;;;;;;4984291;28;20532;-61
2023/01/04 02:09:16;;;;;;;5.67;4.10;;;;;;;;;;4988593;28;20428;-61
2023/01/04 02:11:42;;;;;;;5.90;3.60;;;;;;;;;;4989140;28;20444;-61
2023/01/04 02:14:26;;;;;;;6.80;4.10;;;;;;;;;;5005972;28;20424;-62
2023/01/04 02:16:56;;;;;;;6.70;4.10;;;;;;;;;;4988212;28;20502;-61
2023/01/04 02:19:40;;;;;;;7.50;3.70;;;;;;;;;;5018704;28;20435;-61
2023/01/04 02:22:13;;;;;;;4.90;3.70;;;;;;;;;;5002349;28;20852;-60
2023/01/04 02:24:42;;;;;;;10.33;4.60;;;;;;;;;;4983550;28;20923;-61
2023/01/04 02:27:37;;;;;;;4.90;3.80;;;;;;;;;;4967048;28;20550;-60
2023/01/04 02:30:09;;;;;;;4.90;3.80;;;;;;;;;;5007236;28;20419;-60
2023/01/04 02:32:51;;;;;;;5.30;3.87;;;;;;;;;;4994503;28;20448;-60
2023/01/04 02:35:19;;;;;;;5.67;4.00;;;;;;;;;;5008164;28;20439;-61
2023/01/04 02:37:54;;;;;;;6.03;4.47;;;;;;;;;;4975524;28;20469;-60
2023/01/04 02:40:23;;;;;;;4.77;3.50;;;;;;;;;;5012018;28;20478;-61
2023/01/04 02:46:12;;;;;;;4.17;3.53;;;;;;;;;;5003080;28;20439;-60
2023/01/04 02:51:24;;;;;;;6.10;3.80;;;;;;;;;;5001289;28;21048;-61
2023/01/04 02:53:50;;;;;;;5.47;3.67;;;;;;;;;;4992078;28;20440;-61
2023/01/04 02:56:34;;;;;;;4.20;2.83;;;;;;;;;;4994236;28;20934;-60
2023/01/04 02:59:03;;;;;;;4.70;3.93;;;;;;;;;;4982186;28;20976;-62
2023/01/04 03:07:39;;;;;;;5.23;3.00;;;;;;;;;;5002025;28;20443;-61
2023/01/04 03:10:07;;;;;;;3.30;2.53;;;;;;;;;;5016287;28;20427;-62
2023/01/04 03:12:34;;;;;;;6.57;4.27;;;;;;;;;;4994491;28;20416;-61
2023/01/04 03:15:14;;;;;;;5.50;3.40;;;;;;;;;;4985642;28;20430;-62
2023/01/04 03:17:42;;;;;;;4.80;3.20;;;;;;;;;;4978152;28;21022;-61
2023/01/04 03:20:08;;;;;;;4.53;3.00;;;;;;;;;;4994593;28;20431;-60
2023/01/04 03:36:44;;;;;;;4.47;2.83;;;;;;;;;;4982197;28;20838;-62
2023/01/04 03:50:28;;;;;;;5.03;2.33;;;;;;;;;;4994012;28;20436;-60
2023/01/04 03:52:54;;;;;;;2.80;2.27;;;;;;;;;;4972488;28;20446;-60
2023/01/04 03:55:19;;;;;;;2.63;2.27;;;;;;;;;;4986578;28;20804;-58
2023/01/04 03:57:45;;;;;;;3.63;2.00;;;;;;;;;;4959721;28;20838;-62
2023/01/04 04:00:13;;;;;;;3.53;2.40;;;;;;;;;;4994892;28;20425;-61
2023/01/04 04:02:39;;;;;;;3.53;3.00;;;;;;;;;;4995979;28;20569;-62
2023/01/04 04:10:34;;;;;;;3.10;2.20;;;;;;;;;;5010159;28;20801;-61
2023/01/04 04:13:00;;;;;;;3.33;2.33;;;;;;;;;;5012174;28;20436;-60
2023/01/04 04:15:26;;;;;;;2.83;1.97;;;;;;;;;;5017317;28;20431;-62
2023/01/04 04:17:52;;;;;;;2.73;2.20;;;;;;;;;;4991382;28;20567;-63
2023/01/04 04:20:18;;;;;;;2.67;1.80;;;;;;;;;;5015058;28;20428;-61
2023/01/04 04:22:44;;;;;;;3.60;2.37;;;;;;;;;;4989858;28;20459;-63
2023/01/04 04:25:10;;;;;;;3.00;2.50;;;;;;;;;;4976993;28;20423;-59
2023/01/04 04:27:36;;;;;;;2.83;1.80;;;;;;;;;;5013189;28;20435;-61
2023/01/04 04:30:02;;;;;;;2.67;2.27;;;;;;;;;;4984278;28;20433;-60
2023/01/04 04:32:28;;;;;;;2.80;1.87;;;;;;;;;;5007564;28;20543;-60
2023/01/04 04:34:54;;;;;;;3.00;1.90;;;;;;;;;;5008685;28;20428;-61
2023/01/04 04:37:20;;;;;;;2.27;1.67;;;;;;;;;;5014579;28;20610;-60
2023/01/04 04:39:46;;;;;;;2.30;2.00;;;;;;;;;;4966373;28;20327;-62
2023/01/04 04:42:11;;;;;;;3.00;1.90;;;;;;;;;;5018586;28;20979;-60
2023/01/04 04:44:37;;;;;;;2.40;1.60;;;;;;;;;;5007786;28;20972;-63
2023/01/04 04:47:03;;;;;;;2.20;1.60;;;;;;;;;;5013720;28;20941;-62
2023/01/04 04:49:29;;;;;;;2.50;1.70;;;;;;;;;;4990779;28;20932;-61
2023/01/04 04:51:55;;;;;;;2.03;1.70;;;;;;;;;;5013329;28;20506;-60
2023/01/04 04:54:21;;;;;;;3.33;1.70;;;;;;;;;;4988844;28;20440;-59
2023/01/04 04:56:48;;;;;;;2.43;1.70;;;;;;;;;;5012969;28;20999;-61
2023/01/04 04:59:14;;;;;;;1.70;1.40;;;;;;;;;;5010351;28;20444;-62
2023/01/04 05:01:40;;;;;;;2.07;1.80;;;;;;;;;;5008252;28;21574;-62
2023/01/04 05:04:06;;;;;;;2.33;1.50;;;;;;;;;;5004427;28;20451;-60
2023/01/04 05:06:32;;;;;;;1.70;1.37;;;;;;;;;;5013414;28;20458;-59
2023/01/04 05:09:04;;;;;;;2.23;1.40;;;;;;;;;;4970192;28;20525;-60
2023/01/04 05:14:15;;;;;;;3.70;1.50;;;;;;;;;;5007039;28;20455;-61
2023/01/04 05:16:41;;;;;;;1.60;1.27;;;;;;;;;;5004980;28;20515;-62
2023/01/04 05:19:07;;;;;;;1.73;1.43;;;;;;;;;;4982980;28;20368;-61
2023/01/04 05:21:33;;;;;;;2.20;1.30;;;;;;;;;;5005392;28;20428;-60
2023/01/04 05:23:59;;;;;;;1.80;1.50;;;;;;;;;;4988017;28;20452;-61
2023/01/04 05:26:25;;;;;;;2.80;1.30;;;;;;;;;;5008720;28;20436;-60
2023/01/04 05:28:51;;;;;;;2.10;1.67;;;;;;;;;;5006260;28;20945;-60
2023/01/04 05:31:17;;;;;;;2.17;1.40;;;;;;;;;;4994300;28;20872;-60
2023/01/04 05:33:43;;;;;;;5.10;1.47;;;;;;;;;;5013958;28;20212;-60
2023/01/04 05:36:09;;;;;;;1.50;1.07;;;;;;;;;;5007187;28;20174;-61
2023/01/04 05:38:34;;;;;;;2.23;1.53;;;;;;;;;;5000931;28;20592;-59
2023/01/04 05:41:00;;;;;;;1.70;1.33;;;;;;;;;;4988310;28;20504;-60
2023/01/04 05:43:27;;;;;;;3.57;1.17;;;;;;;;;;4998909;28;20925;-60
2023/01/04 05:45:54;;;;;;;2.63;1.60;;;;;;;;;;4979651;28;20436;-61
2023/01/04 05:48:20;;;;;;;2.33;1.30;;;;;;;;;;5019037;28;20427;-61
2023/01/04 05:50:46;;;;;;;4.30;2.00;;;;;;;;;;5011963;28;20423;-61
2023/01/04 05:53:12;;;;;;;2.03;1.63;;;;;;;;;;4998238;28;20841;-58
2023/01/04 05:55:38;;;;;;;2.30;1.47;;;;;;;;;;5006001;28;20443;-59
2023/01/04 05:58:04;;;;;;;1.83;1.50;;;;;;;;;;5013434;28;20475;-59
2023/01/04 06:00:30;;;;;;;1.73;1.20;;;;;;;;;;4987854;28;20552;-59
2023/01/04 06:02:56;;;;;;;2.77;1.27;;;;;;;;;;5017587;28;20428;-60
2023/01/04 06:05:23;;;;;;;2.60;1.40;;;;;;;;;;5012981;28;20444;-59
2023/01/04 06:07:49;;;;;;;2.80;1.60;;;;;;;;;;5007319;28;20436;-59
2023/01/04 06:10:15;;;;;;;1.87;1.40;;;;;;;;;;4987800;28;20449;-59
2023/01/04 06:12:41;;;;;;;2.23;1.20;;;;;;;;;;5009483;28;20435;-60
2023/01/04 06:15:07;;;;;;;3.80;1.90;;;;;;;;;;4965379;28;20478;-60
2023/01/04 06:17:33;;;;;;;3.47;1.77;;;;;;;;;;4998694;28;20839;-60
2023/01/04 06:19:59;;;;;;;3.10;1.60;;;;;;;;;;5013134;28;20428;-60
2023/01/04 06:22:25;;;;;;;2.40;1.60;;;;;;;;;;5009175;28;20932;-60
2023/01/04 06:24:51;;;;;;;2.30;1.50;;;;;;;;;;5004425;28;20875;-61
2023/01/04 06:27:17;;;;;;;1.97;1.43;;;;;;;;;;5015474;28;20426;-57
2023/01/04 06:29:43;;;;;;;2.03;1.27;;;;;;;;;;4984984;28;20447;-59
2023/01/04 06:32:09;;;;;;;5.10;1.67;;;;;;;;;;4993289;28;20452;-59
2023/01/04 06:34:35;;;;;;;2.27;1.40;;;;;;;;;;5005148;28;20430;-60
2023/01/04 06:37:01;;;;;;;2.40;1.33;;;;;;;;;;4993567;28;20980;-60
2023/01/04 06:39:27;;;;;;;2.90;2.00;;;;;;;;;;4983555;28;20429;-56
2023/01/04 06:41:53;;;;;;;1.73;1.30;;;;;;;;;;5008682;28;20446;-60
2023/01/04 06:44:20;;;;;;;2.53;1.17;;;;;;;;;;4962955;28;21529;-60
2023/01/04 06:46:46;;;;;;;2.20;1.77;;;;;;;;;;5009225;28;20439;-59
2023/01/04 06:49:13;;;;;;;2.17;1.27;;;;;;;;;;5010166;28;21196;-59
2023/01/04 06:51:39;;;;;;;1.60;1.10;;;;;;;;;;5012675;28;20424;-59
2023/01/04 06:54:05;;;;;;;2.60;1.23;;;;;;;;;;5002762;28;20955;-61
2023/01/04 06:56:32;;;;;;;2.13;1.10;;;;;;;;;;4998314;28;20462;-61
2023/01/04 06:58:58;;;;;;;4.90;1.03;;;;;;;;;;4987448;28;20886;-61
2023/01/04 07:01:24;;;;;;;2.40;1.10;;;;;;;;;;5004178;28;20425;-60
2023/01/04 07:03:50;;;;;;;2.60;1.10;;;;;;;;;;4993631;28;20946;-63
2023/01/04 07:06:16;;;;;;;3.73;1.10;;;;;;;;;;5001190;28;20432;-59
2023/01/04 07:08:43;;;;;;;4.23;1.27;;;;;;;;;;4993313;28;20445;-60
2023/01/04 07:11:09;;;;;;;1.60;1.50;;;;;;;;;;4997761;28;20432;-60
2023/01/04 07:13:35;;;;;;;2.60;1.13;;;;;;;;;;4984989;28;21149;-61
2023/01/04 07:16:01;;;;;;;1.73;1.13;;;;;;;;;;5010075;28;21801;-61
2023/01/04 07:18:27;;;;;;;3.87;1.27;;;;;;;;;;4999233;28;20484;-63
2023/01/04 07:20:53;;;;;;;3.83;1.23;;;;;;;;;;4972699;28;20501;-62
2023/01/04 07:23:19;;;;;;;3.00;1.50;;;;;;;;;;5012075;28;20435;-64
2023/01/04 07:25:44;;;;;;;1.40;1.00;;;;;;;;;;5007609;28;20499;-58
2023/01/04 07:28:10;;;;;;;1.33;0.87;;;;;;;;;;5023018;28;20169;-59
2023/01/04 07:30:36;;;;;;;1.80;1.03;;;;;;;;;;4992371;28;20795;-58
2023/01/04 07:33:02;;;;;;;2.00;1.23;;;;;;;;;;5013294;28;20813;-60
2023/01/04 07:35:28;;;;;;;1.70;1.00;;;;;;;;;;4989949;28;20944;-60
2023/01/04 07:37:54;;;;;;;1.83;1.33;;;;;;;;;;5008912;28;20483;-60
2023/01/04 07:40:20;;;;;;;4.20;1.53;;;;;;;;;;4985292;28;20448;-62
2023/01/04 07:42:53;;;;;;;1.87;1.30;;;;;;;;;;5007659;28;20439;-59
2023/01/04 07:45:19;;;;;;;2.10;0.90;;;;;;;;;;5009777;28;20509;-62
2023/01/04 07:47:45;;;;;;;1.77;1.07;;;;;;;;;;5015118;28;20530;-61
2023/01/04 07:50:11;;;;;;;2.13;1.97;;;;;;;;;;4967455;28;20438;-61
2023/01/04 07:52:37;;;;;;;1.70;1.30;;;;;;;;;;5008167;28;20436;-61
2023/01/04 07:55:03;;;;;;;1.70;0.80;;;;;;;;;;5002876;28;20419;-61
2023/01/04 07:57:29;;;;;;;3.80;1.37;;;;;;;;;;5016101;28;20475;-61
2023/01/04 07:59:54;;;;;;;1.73;0.90;;;;;;;;;;4988342;28;20468;-62
2023/01/04 08:02:20;;;;;;;3.77;1.17;;;;;;;;;;5017596;28;20477;-63
2023/01/04 08:04:46;;;;;;;2.33;0.80;;;;;;;;;;4985209;28;20436;-62
2023/01/04 08:07:12;;;;;;;1.93;0.90;;;;;;;;;;5011216;28;20443;-61
2023/01/04 08:09:38;;;;;;;1.53;0.90;;;;;;;;;;4999336;28;20447;-62
2023/01/04 08:12:04;;;;;;;2.23;1.17;;;;;;;;;;5011617;28;20472;-62
2023/01/04 08:14:30;;;;;;;1.40;1.20;;;;;;;;;;5010398;28;21075;-63
2023/01/04 08:16:56;;;;;;;1.30;0.80;;;;;;;;;;5017886;28;20471;-61
2023/01/04 08:19:22;;;;;;;4.23;0.90;;;;;;;;;;4971906;28;20561;-59
2023/01/04 08:21:48;;;;;;;2.57;1.00;;;;;;;;;;5015696;28;20424;-60
2023/01/04 08:24:15;;;;;;;2.53;1.20;;;;;;;;;;5010272;28;20420;-60
2023/01/04 08:26:41;;;;;;;7.97;1.03;;;;;;;;;;5014114;28;20439;-61
2023/01/04 08:29:07;;;;;;;1.40;1.03;;;;;;;;;;5010537;28;20415;-60
2023/01/04 08:31:33;;;;;;;2.00;1.30;;;;;;;;;;5010837;28;20458;-61
2023/01/04 08:34:00;;;;;;;1.30;0.83;;;;;;;;;;4991866;28;20787;-62
2023/01/04 08:36:27;;;;;;;1.53;1.03;;;;;;;;;;5009042;28;20432;-60
2023/01/04 08:38:54;;;;;;;2.37;0.90;;;;;;;;;;4992005;28;20582;-58
2023/01/04 08:41:20;;;;;;;1.20;0.70;;;;;;;;;;5005010;28;20925;-63
2023/01/04 08:43:46;;;;;;;1.37;0.90;;;;;;;;;;5015333;28;20446;-60
2023/01/04 08:46:13;;;;;;;1.10;0.80;;;;;;;;;;5014480;28;20432;-61
2023/01/04 08:48:39;;;;;;;1.40;0.87;;;;;;;;;;4999656;28;20543;-62
2023/01/04 08:51:05;;;;;;;1.73;0.97;;;;;;;;;;4997181;28;20916;-60
2023/01/04 08:53:35;;;;;;;5.30;1.30;;;;;;;;;;4995775;28;20432;-61
2023/01/04 08:56:01;;;;;;;1.23;0.90;;;;;;;;;;4988829;28;20450;-61
2023/01/04 08:58:28;;;;;;;1.93;1.23;;;;;;;;;;5010596;28;20487;-62
2023/01/04 09:00:54;;;;;;;3.60;1.00;;;;;;;;;;4992201;28;20436;-60
2023/01/04 09:03:19;;;;;;;1.70;1.23;;;;;;;;;;4991970;28;20446;-63
2023/01/04 09:05:46;;;;;;;4.63;1.17;;;;;;;;;;5010483;28;20443;-60
2023/01/04 09:08:12;;;;;;;1.50;1.00;;;;;;;;;;5016572;28;20469;-60
2023/01/04 09:10:38;;;;;;;1.63;1.17;;;;;;;;;;4983942;28;20450;-60
2023/01/04 09:13:04;;;;;;;1.67;1.20;;;;;;;;;;5004398;28;20440;-60
2023/01/04 09:15:31;;;;;;;3.50;0.80;;;;;;;;;;5006528;28;20489;-61
2023/01/04 09:17:57;;;;;;;3.23;1.43;;;;;;;;;;5009000;28;20950;-60
2023/01/04 09:20:22;;;;;;;3.13;0.80;;;;;;;;;;4984288;28;20445;-61
2023/01/04 09:22:48;;;;;;;3.50;1.20;;;;;;;;;;5009545;28;20459;-60
2023/01/04 09:25:14;;;;;;;1.70;1.10;;;;;;;;;;4970745;28;20450;-60
2023/01/04 09:27:40;;;;;;;2.30;1.17;;;;;;;;;;5012028;28;20182;-61
2023/01/04 09:30:07;;;;;;;1.13;0.80;;;;;;;;;;5006202;28;20188;-61
2023/01/04 09:32:32;;;;;;;1.20;0.90;;;;;;;;;;5007215;28;20451;-60
2023/01/04 09:34:58;;;;;;;2.00;1.20;;;;;;;;;;5014560;28;20501;-60
2023/01/04 09:37:24;;;;;;;3.83;1.17;;;;;;;;;;5003990;28;20469;-62
2023/01/04 09:39:50;;;;;;;2.90;1.00;;;;;;;;;;4982048;28;20950;-60
2023/01/04 09:42:22;;;;;;;1.23;1.10;;;;;;;;;;5009531;28;20420;-60
2023/01/04 09:44:49;;;;;;;1.83;1.37;;;;;;;;;;5008168;28;20433;-60
2023/01/04 09:47:17;;;;;;;1.83;1.17;;;;;;;;;;5006086;28;20427;-60
2023/01/04 09:49:59;;;;;;;1.40;1.10;;;;;;;;;;5013154;28;20948;-61
2023/01/04 09:52:40;;;;;;;1.70;0.90;;;;;;;;;;4992892;28;20456;-62
2023/01/04 09:55:13;;;;;;;2.80;0.87;;;;;;;;;;4993496;28;20490;-60
2023/01/04 09:57:45;;;;;;;1.30;0.90;;;;;;;;;;4980479;28;20473;-60
2023/01/04 10:00:11;;;;;;;2.33;1.07;;;;;;;;;;4946588;28;20434;-62
2023/01/04 10:02:42;;;;;;;1.50;1.10;;;;;;;;;;5008998;28;20486;-61
2023/01/04 10:05:08;;;;;;;2.43;1.50;;;;;;;;;;5005806;28;20473;-59
2023/01/04 10:07:34;;;;;;;1.63;0.93;;;;;;;;;;4989058;28;20438;-59
2023/01/04 10:10:00;;;;;;;1.37;0.90;;;;;;;;;;5005064;28;20957;-58
2023/01/04 10:12:38;;;;;;;2.20;1.10;;;;;;;;;;5011627;28;20436;-57
2023/01/04 10:15:26;;;;;;;1.17;0.70;;;;;;;;;;4972216;28;21443;-61
2023/01/04 10:17:56;;;;;;;1.53;0.80;;;;;;;;;;4994996;28;20579;-58
2023/01/04 10:20:34;;;;;;;1.07;0.73;;;;;;;;;;4970206;28;20470;-59
2023/01/04 10:23:00;;;;;;;3.43;1.83;;;;;;;;;;5005659;28;20435;-61
2023/01/04 10:25:32;;;;;;;1.00;0.60;;;;;;;;;;5004929;28;20424;-59
2023/01/04 10:28:13;;;;;;;1.43;0.70;;;;;;;;;;5011883;28;20439;-58
2023/01/04 10:30:48;;;;;;;1.83;0.87;;;;;;;;;;4957903;28;20538;-61
2023/01/04 10:33:15;;;;;;;1.63;0.90;;;;;;;;;;5020730;28;20418;-61
2023/01/04 10:35:42;;;;;;;1.70;0.80;;;;;;;;;;4969394;28;20436;-60
2023/01/04 10:38:15;;;;;;;1.30;0.80;;;;;;;;;;5007868;28;20498;-60
2023/01/04 10:40:41;;;;;;;1.67;1.20;;;;;;;;;;4987559;28;20781;-60
2023/01/04 10:43:13;;;;;;;2.40;1.27;;;;;;;;;;4998548;28;20470;-61
2023/01/04 10:45:39;;;;;;;1.20;0.70;;;;;;;;;;5006931;28;20862;-61
2023/01/04 10:48:23;;;;;;;1.73;0.87;;;;;;;;;;5009338;28;20424;-61
2023/01/04 10:50:56;;;;;;;7.17;1.03;;;;;;;;;;4984568;28;20451;-60
2023/01/04 10:53:30;;;;;;;1.10;0.80;;;;;;;;;;5010029;28;20459;-60
2023/01/04 10:56:02;;;;;;;2.67;1.00;;;;;;;;;;4988504;28;20440;-59
2023/01/04 10:58:29;;;;;;;1.20;1.10;;;;;;;;;;4992832;28;20998;-61
2023/01/04 11:00:58;;;;;;;2.17;1.30;;;;;;;;;;4967562;28;20515;-61
2023/01/04 11:03:25;;;;;;;2.90;1.73;;;;;;;;;;4987078;28;20460;-60
2023/01/04 11:05:54;;;;;;;2.23;1.00;;;;;;;;;;4933984;28;20531;-61
2023/01/04 11:08:21;;;;;;;1.40;1.00;;;;;;;;;;5017616;28;20429;-62
2023/01/04 11:10:51;;;;;;;2.87;1.63;;;;;;;;;;5015602;28;20440;-62
2023/01/04 11:13:17;;;;;;;1.60;1.07;;;;;;;;;;5005179;28;20429;-61
2023/01/04 11:15:44;;;;;;;1.37;0.77;;;;;;;;;;5005486;28;20436;-62
2023/01/04 11:18:10;;;;;;;1.70;0.97;;;;;;;;;;5009435;28;20468;-61
2023/01/04 11:20:36;;;;;;;2.33;1.10;;;;;;;;;;4965868;28;20455;-61
2023/01/04 11:23:07;;;;;;;1.73;0.90;;;;;;;;;;4991021;28;20795;-61
2023/01/04 11:25:34;;;;;;;1.67;0.80;;;;;;;;;;4994826;28;20439;-62
2023/01/04 11:28:03;;;;;;;3.23;0.90;;;;;;;;;;5002652;28;20440;-63
2023/01/04 11:30:30;;;;;;;1.83;0.93;;;;;;;;;;5008010;28;20458;-61
2023/01/04 11:33:03;;;;;;;1.50;1.00;;;;;;;;;;4996251;28;20440;-60
2023/01/04 11:35:45;;;;;;;2.10;1.23;;;;;;;;;;4963816;28;20440;-60
2023/01/04 11:38:15;;;;;;;1.60;0.80;;;;;;;;;;5007608;28;20476;-62
2023/01/04 11:40:41;;;;;;;1.50;0.87;;;;;;;;;;4982203;28;20483;-61
2023/01/04 11:43:10;;;;;;;1.40;0.70;;;;;;;;;;5007896;28;20440;-60
2023/01/04 11:45:36;;;;;;;1.27;0.77;;;;;;;;;;5009354;28;20442;-60
2023/01/04 11:48:05;;;;;;;1.00;0.70;;;;;;;;;;5014154;28;20434;-59
2023/01/04 11:50:41;;;;;;;1.23;0.80;;;;;;;;;;4998247;28;20471;-61
2023/01/04 11:53:23;;;;;;;2.73;1.00;;;;;;;;;;5010968;28;20442;-61
2023/01/04 11:55:49;;;;;;;1.50;1.00;;;;;;;;;;4987436;28;20444;-60
2023/01/04 11:58:16;;;;;;;1.40;0.93;;;;;;;;;;5009884;28;21010;-60
2023/01/04 12:00:52;;;;;;;1.53;1.03;;;;;;;;;;4979090;28;20446;-59
2023/01/04 12:03:24;;;;;;;2.20;1.33;;;;;;;;;;5007668;28;20944;-60
2023/01/04 12:05:50;;;;;;;1.97;0.93;;;;;;;;;;4940993;28;20463;-59
2023/01/04 12:08:32;;;;;;;1.67;1.07;;;;;;;;;;5014595;28;20435;-60
2023/01/04 12:10:58;;;;;;;1.80;1.00;;;;;;;;;;4994447;28;20465;-59
2023/01/04 12:13:24;;;;;;;1.53;1.03;;;;;;;;;;4988994;28;20518;-59
2023/01/04 12:16:09;;;;;;;1.93;1.20;;;;;;;;;;4996129;28;20851;-59
2023/01/04 12:18:41;;;;;;;3.50;1.00;;;;;;;;;;5013831;28;20479;-59
2023/01/04 12:21:16;;;;;;;2.70;1.20;;;;;;;;;;4982419;28;20439;-62
2023/01/04 12:23:42;;;;;;;3.90;1.10;;;;;;;;;;4989914;28;20939;-59
2023/01/04 12:26:09;;;;;;;1.77;1.07;;;;;;;;;;4985813;28;20439;-61
2023/01/04 12:28:39;;;;;;;1.50;1.00;;;;;;;;;;5002314;28;20637;-61
2023/01/04 12:31:20;;;;;;;2.53;0.90;;;;;;;;;;5014859;28;20463;-60
2023/01/04 12:33:46;;;;;;;1.83;0.80;;;;;;;;;;4988867;28;20498;-60
2023/01/04 12:36:12;;;;;;;1.10;0.70;;;;;;;;;;5010804;28;20925;-59
2023/01/04 12:38:59;;;;;;;2.10;1.10;;;;;;;;;;4939214;28;20480;-60
2023/01/04 12:42:00;;;;;;;1.60;1.10;;;;;;;;;;5012048;28;20429;-61
2023/01/04 12:44:38;;;;;;;2.77;1.47;;;;;;;;;;5013233;28;20449;-60
2023/01/04 12:49:55;;;;;;;2.50;1.33;;;;;;;;;;4957364;28;20618;-58
2023/01/04 12:52:21;;;;;;;3.23;1.57;;;;;;;;;;4980657;28;20978;-60
2023/01/04 12:54:51;;;;;;;3.37;1.90;;;;;;;;;;5007278;28;20519;-60
2023/01/04 12:57:17;;;;;;;1.57;1.00;;;;;;;;;;4991926;28;20225;-59
2023/01/04 12:59:56;;;;;;;2.90;1.30;;;;;;;;;;5006808;28;21494;-59
2023/01/04 13:02:28;;;;;;;8.03;1.27;;;;;;;;;;5004404;28;20627;-58
2023/01/04 13:04:58;;;;;;;2.70;1.20;;;;;;;;;;5011490;28;20805;-60
2023/01/04 13:07:26;;;;;;;1.73;1.10;;;;;;;;;;5006720;28;20514;-58
2023/01/04 13:09:59;;;;;;;2.27;1.00;;;;;;;;;;5012908;28;20431;-60
2023/01/04 13:12:44;;;;;;;1.83;1.00;;;;;;;;;;4945014;28;21240;-60
2023/01/04 13:15:13;;;;;;;2.80;1.23;;;;;;;;;;5011746;28;20515;-60
2023/01/04 13:17:39;;;;;;;2.80;1.00;;;;;;;;;;4990838;28;20582;-58
2023/01/04 13:20:18;;;;;;;1.77;1.10;;;;;;;;;;5012872;28;20423;-60
2023/01/04 13:22:47;;;;;;;1.30;0.90;;;;;;;;;;4983901;28;20444;-60
2023/01/04 13:25:13;;;;;;;1.73;1.00;;;;;;;;;;4988020;28;20440;-62
2023/01/04 13:27:39;;;;;;;1.20;0.80;;;;;;;;;;4987668;28;21136;-61
2023/01/04 13:30:05;;;;;;;2.00;0.90;;;;;;;;;;5001529;28;20427;-61
2023/01/04 13:32:34;;;;;;;2.10;0.83;;;;;;;;;;4994057;28;20466;-60
2023/01/04 13:35:04;;;;;;;1.10;0.60;;;;;;;;;;4992682;28;20424;-63
2023/01/04 13:37:37;;;;;;;2.03;1.00;;;;;;;;;;5005369;28;21137;-62
2023/01/04 13:40:22;;;;;;;1.20;0.80;;;;;;;;;;5015004;28;20450;-61
2023/01/04 13:43:00;;;;;;;1.40;0.83;;;;;;;;;;4988003;28;20505;-61
2023/01/04 13:45:45;;;;;;;1.20;0.77;;;;;;;;;;5006576;28;20443;-61
2023/01/04 13:48:12;;;;;;;6.00;1.33;;;;;;;;;;4962069;28;20455;-61
2023/01/04 13:50:48;;;;;;;1.97;0.87;;;;;;;;;;5005325;28;20435;-60
2023/01/04 13:53:18;;;;;;;1.73;1.03;;;;;;;;;;4994458;28;20938;-60
2023/01/04 13:55:44;;;;;;;1.60;0.80;;;;;;;;;;5012623;28;20545;-60
2023/01/04 13:58:17;;;;;;;2.70;0.90;;;;;;;;;;4974700;28;20584;-61
2023/01/04 14:00:44;;;;;;;1.30;0.70;;;;;;;;;;5005464;28;20185;-62
2023/01/04 14:03:11;;;;;;;1.87;0.90;;;;;;;;;;4971707;28;20419;-59
2023/01/04 14:05:37;;;;;;;1.47;1.00;;;;;;;;;;5009882;28;20870;-61
2023/01/04 14:08:03;;;;;;;1.53;1.00;;;;;;;;;;4996780;28;20444;-60
2023/01/04 14:10:29;;;;;;;1.60;0.80;;;;;;;;;;4987586;28;20720;-60
2023/01/04 14:12:55;;;;;;;1.17;0.73;;;;;;;;;;5007567;28;20554;-62
2023/01/04 14:15:22;;;;;;;1.50;0.73;;;;;;;;;;4987416;28;20417;-61
2023/01/04 14:17:51;;;;;;;1.13;0.80;;;;;;;;;;4985759;28;20476;-60
2023/01/04 14:20:23;;;;;;;3.93;1.47;;;;;;;;;;5008284;28;20427;-61
2023/01/04 14:22:49;;;;;;;1.67;0.90;;;;;;;;;;4960617;28;20543;-61
2023/01/04 14:25:37;;;;;;;2.10;1.00;;;;;;;;;;5008671;28;20435;-60
2023/01/04 14:28:18;;;;;;;2.00;1.07;;;;;;;;;;5011313;28;20480;-61
2023/01/04 14:30:59;;;;;;;2.50;0.77;;;;;;;;;;5015326;28;20550;-60
2023/01/04 14:33:28;;;;;;;1.40;0.80;;;;;;;;;;4985208;28;20440;-60
2023/01/04 14:36:09;;;;;;;3.37;1.20;;;;;;;;;;4980723;28;20443;-60
2023/01/04 14:38:35;;;;;;;2.03;1.20;;;;;;;;;;5003983;28;20525;-59
2023/01/04 14:41:24;;;;;;;1.57;0.93;;;;;;;;;;5019080;28;20798;-59
2023/01/04 14:43:52;;;;;;;1.63;1.10;;;;;;;;;;4990212;28;20467;-60
2023/01/04 14:46:18;;;;;;;2.80;1.37;;;;;;;;;;5013418;28;20454;-60
2023/01/04 14:48:44;;;;;;;1.67;1.20;;;;;;;;;;5012505;28;20863;-60
2023/01/04 14:51:10;;;;;;;1.83;1.00;;;;;;;;;;5008024;28;20423;-60
2023/01/04 14:53:36;;;;;;;1.47;1.00;;;;;;;;;;4966834;28;20483;-62
2023/01/04 14:56:02;;;;;;;1.47;0.80;;;;;;;;;;5007985;28;20470;-60
2023/01/04 14:58:28;;;;;;;1.60;0.97;;;;;;;;;;4962161;28;20548;-63
2023/01/04 15:00:54;;;;;;;4.80;1.00;;;;;;;;;;5005947;28;20464;-61
2023/01/04 15:03:20;;;;;;;2.30;0.90;;;;;;;;;;5000717;28;21035;-62
2023/01/04 15:05:46;;;;;;;1.40;0.93;;;;;;;;;;5009510;28;20436;-60
2023/01/04 15:08:13;;;;;;;1.20;0.80;;;;;;;;;;5007058;28;20451;-59
2023/01/04 15:10:39;;;;;;;1.50;0.87;;;;;;;;;;5017486;28;20424;-60
2023/01/04 15:13:06;;;;;;;2.70;0.70;;;;;;;;;;4986979;28;20479;-59
2023/01/04 15:15:32;;;;;;;1.43;0.90;;;;;;;;;;5006522;28;20530;-59
2023/01/04 15:17:58;;;;;;;1.67;0.80;;;;;;;;;;4998389;28;20491;-59
2023/01/04 15:20:24;;;;;;;2.30;1.10;;;;;;;;;;5012095;28;20437;-61
2023/01/04 15:22:50;;;;;;;4.27;1.83;;;;;;;;;;5005968;28;20950;-61
2023/01/04 15:25:16;;;;;;;1.40;0.87;;;;;;;;;;5015774;28;21037;-60
2023/01/04 15:27:42;;;;;;;2.07;1.10;;;;;;;;;;4958844;28;20455;-59
2023/01/04 15:30:08;;;;;;;2.30;1.23;;;;;;;;;;5001211;28;20443;-61
2023/01/04 15:32:35;;;;;;;1.20;0.83;;;;;;;;;;4983040;28;20461;-61
2023/01/04 15:35:04;;;;;;;2.07;0.93;;;;;;;;;;4991100;28;20443;-61
2023/01/04 15:37:30;;;;;;;1.57;0.77;;;;;;;;;;5001331;28;20584;-61
2023/01/04 15:39:55;;;;;;;2.90;1.10;;;;;;;;;;5013176;28;20448;-61